• Join FlightAware (Why Join?)
  • Login
  • US Flag 
09:19PM EDT


 

Airport Tracker/Info


-or-


 

Live Flight TrackerFlight Track Log ✈ N569SC ✈ 22-Jun-2013 ✈ KMDW - KASE

Flight Track Log - Related Links

Times and Time Zones

All times are in EDT time to prevent confusion due to time zone crossing. See the N569SC flight status page for this flight to view local times or setup timezone preferences in your user account.

Time Position Orientation Groundspeed Altitude Reporting Facility
EDT Latitude Longitude Course Direction KTS MPH feet Rate Location/Type
10:28AM 41.7544 -87.8239 266° West 233 268 3,000  Level Chicago Center
10:29AM 41.7336 -87.9106 252° West 242 278 3,900 420 Climbing Chicago Center
10:30AM 41.7319 -88.0233 269° West 252 290 3,900 480 Level Chicago Center
10:31AM 41.7289 -88.1136 267° West 251 289 5,000 960 Climbing Chicago Center
10:32AM 41.7336 -88.2072 274° West 256 295 5,900 900 Climbing Chicago Center
10:34AM 41.7323 -88.5868 266° West  Level FlightAware Approximate
10:34AM 41.7592 -88.2964 291° West 258 297 6,900  Level Chicago Center
10:35AM 41.7850 -88.3897 290° West 268 308 9,500 2,700 Climbing Chicago Center
10:36AM 41.7894 -88.5108 273° West 282 325 12,500 2,340 Climbing Chicago Center
10:37AM 41.7867 -88.6194 268° West 291 335 14,400 1,920 Climbing Chicago Center
10:38AM 41.7817 -88.7369 267° West 314 361 16,500 1,740 Climbing Chicago Center
10:39AM 41.7758 -88.8608 266° West 333 383 18,000 1,080 Climbing Chicago Center
10:40AM 41.7694 -88.9886 266° West 344 396 18,800 480 Climbing Chicago Center
10:41AM 41.7644 -89.1403 268° West 343 395 19,000 60 Climbing Chicago Center
10:42AM 41.7628 -89.2628 269° West 340 391 19,000 480 Level Chicago Center
10:43AM 41.7619 -89.3808 269° West 330 380 20,100 1,200 Climbing Chicago Center
10:44AM 41.7486 -89.5025 262° West 329 379 21,600 1,500 Climbing Chicago Center
10:45AM 41.7286 -89.6294 258° West 341 392 23,200 1,800 Climbing Chicago Center
10:46AM 41.7300 -89.7625 271° West 357 411 25,400 2,220 Climbing Chicago Center
10:47AM 41.7292 -89.9208 270° West 357 411 27,900 2,040 Climbing Chicago Center
10:48AM 41.7292 -90.0561 270° West 364 419 29,700 1,620 Climbing Chicago Center
10:49AM 41.7286 -90.1975 270° West 377 434 31,300 1,560 Climbing Chicago Center
10:50AM 41.7253 -90.3447 268° West 393 452 32,900 1,380 Climbing Chicago Center
10:51AM 41.7244 -90.4908 270° West 395 455 34,200 1,200 Climbing Chicago Center
10:52AM 41.7225 -90.6722 269° West 415 478 35,500 1,140 Climbing Chicago Center
10:53AM 41.7197 -90.8322 269° West 427 491 36,600 1,020 Climbing Chicago Center
10:54AM 41.7050 -90.9931 263° West 435 501 37,700 1,080 Climbing Chicago Center
10:55AM 41.6911 -91.1544 263° West 438 504 38,900 1,200 Climbing Chicago Center
10:56AM 41.6764 -91.3128 263° West 434 499 40,200 1,200 Climbing Chicago Center
10:57AM 41.6636 -91.4686 264° West 426 490 41,400 1,080 Climbing Chicago Center
10:58AM 41.6464 -91.6553 263° West 425 489 42,500 840 Climbing Chicago Center
10:59AM 41.6319 -91.8117 263° West 426 490 43,200 660 Climbing Chicago Center
11:00AM 41.6172 -91.9692 263° West 429 494 44,000 780 Climbing Chicago Center
11:01AM 41.6031 -92.1239 263° West 426 490 44,900 480 Climbing Chicago Center
11:02AM 41.5886 -92.2775 263° West 420 483 45,000  Climbing Chicago Center
11:03AM 41.5706 -92.4572 262° West 412 474 45,000  Level Chicago Center
11:04AM 41.5558 -92.6053 262° West 407 468 45,000  Level Chicago Center
11:06AM 41.5414 -92.7519 263° West 409 471 45,000  Level Minneapolis Center
11:07AM 41.5242 -92.9214 262° West 395 455 45,000  Level Minneapolis Center
11:08AM 41.5089 -93.0600 262° West 386 444 45,000  Level Minneapolis Center
11:09AM 41.4956 -93.1939 262° West 375 432 45,000  Level Minneapolis Center
11:10AM 41.4806 -93.3275 262° West 371 427 45,000  Level Minneapolis Center
11:11AM 41.4672 -93.4606 262° West 368 423 45,000  Level Minneapolis Center
11:12AM 41.4508 -93.6147 262° West 362 417 45,000  Level Minneapolis Center
11:13AM 41.4347 -93.7719 262° West 360 414 45,000  Level Minneapolis Center
11:14AM 41.4192 -93.9036 261° West 363 418 45,000  Level Minneapolis Center
11:15AM 41.4050 -94.0350 262° West 364 419 45,000  Level Minneapolis Center
11:16AM 41.3900 -94.1692 262° West 367 422 45,000  Level Minneapolis Center
11:17AM 41.3739 -94.3119 261° West 369 425 45,000  Level Minneapolis Center
11:18AM 41.3572 -94.4492 261° West 374 430 45,000  Level Minneapolis Center
11:19AM 41.3453 -94.5592 262° West 375 432 45,000  Level Minneapolis Center
11:20AM 41.3256 -94.7275 261° West 381 438 45,000  Level Minneapolis Center
11:21AM 41.3081 -94.8706 261° West 388 447 45,000  Level Minneapolis Center
11:22AM 41.2864 -95.0417 260° West 391 450 45,000  Level Minneapolis Center
11:23AM 41.2656 -95.2128 261° West 390 449 45,000  Level Minneapolis Center
11:24AM 41.2467 -95.3558 260° West 391 450 45,000  Level Minneapolis Center
11:25AM 41.2269 -95.4989 260° West 392 451 45,000  Level Minneapolis Center
11:27AM 41.2092 -95.6586 262° West 394 453 45,000  Level Minneapolis Center
11:28AM 41.1908 -95.8006 260° West 390 449 45,100  Climbing Minneapolis Center
11:29AM 41.1711 -95.9431 260° West 391 450 45,000 -60 Descending Minneapolis Center
11:30AM 41.1533 -96.0853 261° West 392 451 45,000  Level Minneapolis Center
11:31AM 41.1333 -96.2286 260° West 394 453 45,000  Level Minneapolis Center
11:32AM 41.1147 -96.3686 260° West 402 463 45,000  Level Minneapolis Center
11:33AM 41.0922 -96.5408 260° West 397 457 45,000  Level Minneapolis Center
11:34AM 41.0717 -96.6878 260° West 402 463 45,000  Level Minneapolis Center
11:35AM 41.0511 -96.8344 260° West 405 466 45,000  Level Minneapolis Center
11:36AM 41.0311 -96.9817 260° West 405 466 45,000  Level Minneapolis Center
11:37AM 41.0106 -97.1264 259° West 403 464 45,000  Level Minneapolis Center
11:38AM 40.9903 -97.2706 259° West 400 460 45,000  Level Minneapolis Center
11:39AM 40.9689 -97.4183 259° West 393 452 45,000  Level Minneapolis Center
11:40AM 40.9483 -97.5589 259° West 390 449 45,000  Level Minneapolis Center
11:41AM 40.9278 -97.6986 259° West 388 447 45,000  Level Minneapolis Center
11:42AM 40.9033 -97.8656 259° West 387 445 45,000  Level Minneapolis Center
11:43AM 40.8828 -98.0053 259° West 386 444 45,000  Level Minneapolis Center
11:44AM 40.8622 -98.1469 259° West 390 449 45,000  Level Minneapolis Center
11:45AM 40.8394 -98.2878 258° West 390 449 45,000  Level Minneapolis Center
11:46AM 40.8200 -98.4203 259° West 393 452 45,000  Level Minneapolis Center
11:47AM 40.7978 -98.5617 258° West 393 452 45,000  Level Minneapolis Center
11:48AM 40.7711 -98.7308 258° West 394 453 45,000  Level Minneapolis Center
11:49AM 40.7500 -98.8719 259° West 393 452 45,000  Level Minneapolis Center
11:50AM 40.7303 -98.9997 259° West 392 451 45,000  Level Minneapolis Center
11:51AM 40.7036 -99.1706 258° West 393 452 45,000  Level Minneapolis Center
11:52AM 40.6800 -99.3131 258° West 395 455 45,000  Level Minneapolis Center
11:53AM 40.6533 -99.4825 258° West 394 453 45,000  Level Minneapolis Center
11:55AM 40.6306 -99.6236 258° West 394 453 45,000  Level Minneapolis Center
11:56AM 40.6083 -99.7653 258° West 394 453 45,000  Level Minneapolis Center
11:57AM 40.5847 -99.9075 258° West 396 456 45,000  Level Minneapolis Center
11:58AM 40.5606 -100.0478 257° West 394 453 45,000  Level Minneapolis Center
11:59AM 40.5367 -100.1911 258° West 397 457 45,000  Level Minneapolis Center
12:00PM 40.5081 -100.3625 258° West 400 460 45,000  Level Minneapolis Center
12:01PM 40.4844 -100.5028 258° West 398 458 45,000 -60 Level Minneapolis Center
12:02PM 40.4475 -100.6928 256° West 392 451 44,900 -300 Descending Denver Center
12:03PM 40.4253 -100.8247 258° West 387 445 44,300 -540 Descending Denver Center
12:04PM 40.4067 -100.9331 257° West 382 440 43,800 -600 Descending Denver Center
12:05PM 40.3756 -101.1047 257° West 377 434 43,100 -420 Descending Denver Center
12:06PM 40.3489 -101.2544 257° West 376 433 43,000 -60 Descending Denver Center
12:07PM 40.3269 -101.3831 257° West 378 435 43,000  Level Denver Center
12:08PM 40.3033 -101.5128 257° West 381 438 43,000  Level Denver Center
12:09PM 40.2756 -101.6603 256° West 374 430 43,000  Level Denver Center
12:11PM 40.2444 -101.8317 257° West 378 435 43,000  Level Denver Center
12:12PM 40.2206 -101.9594 256° West 378 435 43,000  Level Denver Center
12:13PM 40.1919 -102.1072 256° West 376 433 43,000  Level Denver Center
12:14PM 40.1694 -102.2342 257° West 376 433 43,000  Level Denver Center
12:15PM 40.1414 -102.3833 256° West 378 435 43,000  Level Denver Center
12:16PM 40.1161 -102.5097 255° West 376 433 43,000  Level Denver Center
12:17PM 40.0922 -102.6383 256° West 380 437 43,000  Level Denver Center
12:18PM 40.0625 -102.7856 255° West 377 434 43,000  Level Denver Center
12:19PM 40.0367 -102.9200 256° West 381 438 43,000  Level Denver Center
12:20PM 40.0106 -103.0522 256° West 378 435 43,000  Level Denver Center
12:21PM 39.9847 -103.1872 256° West 383 441 43,000  Level Denver Center
12:22PM 39.9525 -103.3469 255° West 382 440 43,000  Level Denver Center
12:23PM 39.9261 -103.4797 256° West 381 438 43,000  Level Denver Center
12:24PM 39.8989 -103.6103 255° West 375 432 43,000  Level Denver Center
12:25PM 39.8714 -103.7450 255° West 384 442 43,000  Level Denver Center
12:26PM 39.8456 -103.8783 256° West 378 435 43,000  Level Denver Center
12:27PM 39.8175 -104.0103 255° West 380 437 43,000  Level Denver Center
12:28PM 39.7861 -104.1656 255° West 370 426 43,000  Level Denver Center
12:29PM 39.7586 -104.2947 255° West 370 426 43,000  Level Denver Center
12:30PM 39.7319 -104.4231 255° West 367 422 43,000 -120 Level Denver Center
12:31PM 39.7031 -104.5556 254° West 384 442 42,800 -540 Descending Denver Center
12:32PM 39.6842 -104.6872 259° West 381 438 41,900 -1,020 Descending Denver Center
12:33PM 39.6675 -104.8542 263° West 418 481 40,800 -1,020 Descending Denver Center
12:34PM 39.6522 -104.9944 262° West 393 452 39,900 -1,200 Descending Denver Center
12:35PM 39.6369 -105.1322 262° West 389 448 38,400 -1,620 Descending Denver Center
12:36PM 39.6217 -105.2753 262° West 398 458 36,600 -1,860 Descending Denver Center
12:37PM 39.6031 -105.4461 262° West 401 461 34,600 -1,680 Descending Denver Center
12:39PM 39.5878 -105.5864 262° West 395 455 32,800 -1,740 Descending Denver Center
12:40PM 39.5686 -105.7544 262° West 394 453 30,700 -1,860 Descending Denver Center
12:41PM 39.5564 -105.8903 263° West 382 440 29,000 -1,740 Descending Denver Center
12:42PM 39.5403 -106.0275 261° West 387 445 27,200 -1,920 Descending Denver Center
12:43PM 39.5231 -106.1781 262° West 383 441 25,100 -2,040 Descending Denver Center
12:44PM 39.5078 -106.3131 262° West 380 437 23,100 -1,980 Descending Denver Center
12:45PM 39.4922 -106.4475 262° West 376 433 21,100 -2,280 Descending Denver Center
12:46PM 39.4747 -106.5939 261° West 362 417 18,500 -2,220 Descending Denver Center
12:47PM 39.4611 -106.7069 261° West 337 388 16,500 -1,800 Descending Denver Center
12:48PM 39.4511 -106.7906 261° West 302 348 14,800 -1,380 Descending Denver Center
12:49PM 39.4217 -106.8892 249° West 245 282 13,700 -1,380 Descending Denver Center
12:50PM 39.3714 -106.8992 189° South 185 213 12,000 -1,260 Descending Denver Center
12:51PM 39.3306 -106.8967 177° South 162 186 11,100 -1,500 Descending Denver Center
12:52PM 39.2906 -106.8936 177° South 150 173 9,000 -1,140 Descending Denver Center
12:53PM 39.2500 -106.8900 176° South 149 171 8,800 -240 Descending Denver Center
12:54PM 39.2167 -106.8667 176° South  Level FlightAware Approximate